Terminal Aerodrome Forecast
Issued by NWS Memphis, TN

Home | Current Version | Previous Version | Text Only | Print | Product List | Glossary On
Versions: 1 2 3 4 5 6 7 8 9 10 11 12 13 14 15 16 17 18
109
FTUS44 KMEG 211141
TAFJBR
TAF
KJBR 211141Z 2112/2212 18005KT P6SM BKN250
     FM211500 18010KT P6SM SCT025 BKN250
     FM220000 16010KT 6SM -TSRA BKN040CB OVC100
      TEMPO 2200/2203 1SM +TSRA BKN020CB
     FM220300 12008KT 5SM -SHRA OVC050=

USA.gov is the U.S. government's official web portal to all federal, state and local government web resources and services.